createdAt,value
2018-07-09T00:00:42.552Z,15.4
2018-07-09T00:01:32.614Z,15.4
2018-07-09T00:02:22.870Z,15.4
2018-07-09T00:03:12.649Z,15.4
2018-07-09T00:04:03.292Z,15.4
2018-07-09T00:04:52.494Z,15.4
2018-07-09T00:05:43.141Z,15.4
2018-07-09T00:06:33.241Z,15.3
2018-07-09T00:07:23.247Z,15.3
2018-07-09T00:08:13.385Z,15.3
2018-07-09T00:09:03.666Z,15.3
2018-07-09T00:09:53.732Z,15.3
2018-07-09T00:10:43.810Z,15.3
2018-07-09T00:11:33.878Z,15.2
2018-07-09T00:12:23.655Z,15.2
2018-07-09T00:13:13.698Z,15.2
2018-07-09T00:14:03.482Z,15.1
2018-07-09T00:14:54.124Z,15.1
2018-07-09T00:15:43.944Z,15.1
2018-07-09T00:16:33.688Z,15.1
2018-07-09T00:17:24.038Z,15.1
2018-07-09T00:18:14.363Z,15
2018-07-09T00:19:04.453Z,15
2018-07-09T00:19:54.246Z,15
2018-07-09T00:20:44.272Z,14.9
2018-07-09T00:21:34.339Z,14.9
2018-07-09T00:22:24.135Z,14.9
2018-07-09T00:23:14.462Z,14.9
2018-07-09T00:24:04.547Z,14.9
2018-07-09T00:24:54.335Z,14.9
2018-07-09T00:25:44.675Z,14.9
2018-07-09T00:26:34.739Z,14.9
2018-07-09T00:27:25.105Z,14.9
2018-07-09T00:28:14.871Z,14.8
2018-07-09T00:29:04.943Z,14.8
2018-07-09T00:29:55.034Z,14.8
2018-07-09T00:30:45.344Z,14.8
2018-07-09T00:31:35.166Z,14.8
2018-07-09T00:32:25.522Z,14.8
2018-07-09T00:33:14.987Z,14.8
2018-07-09T00:34:05.607Z,14.8
2018-07-09T00:34:55.391Z,14.8
2018-07-09T00:35:45.726Z,14.8
2018-07-09T00:36:35.520Z,14.8
2018-07-09T00:37:25.907Z,14.8
2018-07-09T00:38:15.919Z,14.8
2018-07-09T00:39:05.454Z,14.8
2018-07-09T00:39:55.797Z,14.8
2018-07-09T00:40:46.151Z,14.8
2018-07-09T00:41:35.903Z,14.7
2018-07-09T00:42:26.268Z,14.7
2018-07-09T00:43:16.334Z,14.8
2018-07-09T00:44:06.084Z,14.8
2018-07-09T00:44:56.171Z,14.8
2018-07-09T00:45:46.249Z,14.8
2018-07-09T00:46:36.331Z,14.8
2018-07-09T00:47:26.618Z,14.7
2018-07-09T00:48:16.420Z,14.8
2018-07-09T00:49:06.766Z,14.8
2018-07-09T00:49:56.581Z,14.8
2018-07-09T00:50:46.613Z,14.8
2018-07-09T00:51:36.424Z,14.8
2018-07-09T00:52:26.181Z,14.8
2018-07-09T00:53:17.111Z,14.8
2018-07-09T00:54:06.659Z,14.7
2018-07-09T00:54:57.219Z,14.8
2018-07-09T00:55:47.006Z,14.7
2018-07-09T00:56:37.350Z,14.7
2018-07-09T00:57:27.449Z,14.7
2018-07-09T00:58:17.498Z,14.7
2018-07-09T00:59:06.998Z,14.7
2018-07-09T00:59:57.350Z,14.7
2018-07-09T01:00:47.393Z,14.7
2018-07-09T01:01:36.901Z,14.6
2018-07-09T01:02:27.515Z,14.6
2018-07-09T01:03:17.890Z,14.6
2018-07-09T01:04:07.731Z,14.6
2018-07-09T01:04:57.746Z,14.6
2018-07-09T01:05:47.795Z,14.6
2018-07-09T01:06:38.142Z,14.6
2018-07-09T01:07:28.190Z,14.6
2018-07-09T01:08:17.992Z,14.6
2018-07-09T01:09:08.140Z,14.6
2018-07-09T01:09:58.124Z,14.6
2018-07-09T01:10:48.470Z,14.6
2018-07-09T01:11:37.970Z,14.6
2018-07-09T01:12:28.573Z,14.6
2018-07-09T01:13:18.380Z,14.6
2018-07-09T01:14:08.456Z,14.6
2018-07-09T01:14:58.216Z,14.6
2018-07-09T01:15:48.600Z,14.6
2018-07-09T01:16:38.887Z,14.6
2018-07-09T01:17:28.409Z,14.6
2018-07-09T01:18:19.043Z,14.6
2018-07-09T01:19:09.107Z,14.6
2018-07-09T01:19:59.240Z,14.6
2018-07-09T01:20:49.218Z,14.6
2018-07-09T01:21:38.769Z,14.6
2018-07-09T01:22:29.399Z,14.6
2018-07-09T01:23:19.169Z,14.6
2018-07-09T01:24:08.946Z,14.6
2018-07-09T01:24:59.294Z,14.6
2018-07-09T01:25:49.368Z,14.6
2018-07-09T01:26:39.715Z,14.6
2018-07-09T01:27:28.897Z,14.6
2018-07-09T01:28:19.854Z,14.6
2018-07-09T01:29:09.589Z,14.6
2018-07-09T01:29:59.976Z,14.6
2018-07-09T01:30:49.744Z,14.6
2018-07-09T01:31:39.845Z,14.6
2018-07-09T01:32:30.148Z,14.6
2018-07-09T01:33:20.184Z,14.6
2018-07-09T01:34:09.981Z,14.6
2018-07-09T01:35:00.327Z,14.6
2018-07-09T01:35:49.832Z,14.6
2018-07-09T01:36:40.461Z,14.6
2018-07-09T01:37:30.524Z,14.6
2018-07-09T01:38:20.313Z,14.6
2018-07-09T01:39:10.093Z,14.6
2018-07-09T01:40:00.727Z,14.6
2018-07-09T01:40:50.215Z,14.6
2018-07-09T01:41:40.272Z,14.6
2018-07-09T01:42:30.418Z,14.5
2018-07-09T01:43:20.421Z,14.5
2018-07-09T01:44:10.757Z,14.5
2018-07-09T01:45:00.843Z,14.6
2018-07-09T01:45:51.168Z,14.5
2018-07-09T01:46:40.682Z,14.5
2018-07-09T01:47:31.299Z,14.5
2018-07-09T01:48:20.828Z,14.5
2018-07-09T01:49:11.152Z,14.5
2018-07-09T01:50:01.208Z,14.5
2018-07-09T01:50:51.590Z,14.5
2018-07-09T01:51:41.613Z,14.5
2018-07-09T01:52:31.399Z,14.5
2018-07-09T01:53:21.488Z,14.5
2018-07-09T01:54:11.245Z,14.5
2018-07-09T01:55:01.610Z,14.6
2018-07-09T01:55:51.383Z,14.5
2018-07-09T01:56:42.013Z,14.5
2018-07-09T01:57:31.800Z,14.5
2018-07-09T01:58:21.858Z,14.5
2018-07-09T01:59:11.920Z,14.5
2018-07-09T02:00:02.253Z,14.5
2018-07-09T02:00:52.322Z,14.6
2018-07-09T02:01:42.120Z,14.6
2018-07-09T02:02:32.192Z,14.6
2018-07-09T02:03:22.337Z,14.6
2018-07-09T02:04:12.624Z,14.6
2018-07-09T02:05:02.418Z,14.6
2018-07-09T02:05:52.437Z,14.6
2018-07-09T02:06:42.804Z,14.6
2018-07-09T02:07:32.834Z,14.6
2018-07-09T02:08:22.344Z,14.6
2018-07-09T02:09:12.994Z,14.6
2018-07-09T02:10:02.767Z,14.6
2018-07-09T02:10:52.847Z,14.6
2018-07-09T02:11:42.905Z,14.6
2018-07-09T02:12:32.948Z,14.6
2018-07-09T02:13:23.292Z,14.6
2018-07-09T02:14:13.365Z,14.6
2018-07-09T02:15:03.172Z,14.6
2018-07-09T02:15:52.940Z,14.6
2018-07-09T02:16:43.558Z,14.6
2018-07-09T02:17:33.345Z,14.6
2018-07-09T02:18:23.441Z,14.6
2018-07-09T02:19:13.510Z,14.6
2018-07-09T02:20:03.844Z,14.5
2018-07-09T02:20:53.894Z,14.5
2018-07-09T02:21:43.381Z,14.5
2018-07-09T02:22:34.052Z,14.5
2018-07-09T02:23:23.802Z,14.5
2018-07-09T02:24:13.891Z,14.5
2018-07-09T02:25:04.244Z,14.5
2018-07-09T02:25:54.001Z,14.5
2018-07-09T02:26:44.336Z,14.5
2018-07-09T02:27:34.105Z,14.5
2018-07-09T02:28:23.908Z,14.5
2018-07-09T02:29:14.272Z,14.5
2018-07-09T02:30:04.043Z,14.5
2018-07-09T02:30:54.682Z,14.6
2018-07-09T02:31:44.745Z,14.5
2018-07-09T02:32:34.504Z,14.5
2018-07-09T02:33:24.311Z,14.6
2018-07-09T02:34:14.986Z,14.6
2018-07-09T02:35:05.024Z,14.6
2018-07-09T02:35:54.788Z,14.6
2018-07-09T02:36:45.128Z,14.6
2018-07-09T02:37:35.177Z,14.6
2018-07-09T02:38:24.937Z,14.6
2018-07-09T02:39:14.744Z,14.6
2018-07-09T02:40:05.355Z,14.6
2018-07-09T02:40:55.165Z,14.6
2018-07-09T02:41:45.216Z,14.6
2018-07-09T02:42:35.591Z,14.6
2018-07-09T02:43:25.097Z,14.6
2018-07-09T02:44:15.699Z,14.6
2018-07-09T02:45:04.922Z,14.6
2018-07-09T02:45:55.303Z,14.6
2018-07-09T02:46:45.625Z,14.6
2018-07-09T02:47:35.115Z,14.6
2018-07-09T02:48:26.017Z,14.6
2018-07-09T02:49:16.796Z,14.6
2018-07-09T02:50:06.240Z,14.6
2018-07-09T02:50:55.963Z,14.7
2018-07-09T02:51:46.028Z,14.7
2018-07-09T02:52:36.366Z,14.7
2018-07-09T02:53:26.425Z,14.7
2018-07-09T02:54:16.483Z,14.7
2018-07-09T02:55:06.601Z,14.7
2018-07-09T02:55:56.628Z,14.8
2018-07-09T02:56:46.408Z,14.8
2018-07-09T02:57:36.509Z,14.8
2018-07-09T02:58:25.955Z,14.8
2018-07-09T02:59:16.886Z,14.8
2018-07-09T03:00:06.949Z,14.8
2018-07-09T03:00:57.332Z,14.8
2018-07-09T03:01:46.483Z,14.8
2018-07-09T03:02:36.839Z,14.8
2018-07-09T03:03:26.659Z,14.8
2018-07-09T03:04:16.992Z,14.8
2018-07-09T03:05:07.349Z,14.8
2018-07-09T03:05:57.092Z,14.9
2018-07-09T03:06:47.461Z,14.9
2018-07-09T03:07:37.239Z,14.9
2018-07-09T03:08:27.012Z,14.9
2018-07-09T03:09:17.376Z,14.9
2018-07-09T03:10:07.733Z,14.9
2018-07-09T03:10:57.783Z,14.9
2018-07-09T03:11:47.538Z,14.9
2018-07-09T03:12:37.335Z,14.9
2018-07-09T03:13:27.955Z,14.9
2018-07-09T03:14:17.481Z,14.9
2018-07-09T03:15:07.848Z,14.9
2018-07-09T03:15:58.191Z,14.9
2018-07-09T03:16:47.935Z,14.9
2018-07-09T03:17:38.271Z,14.9
2018-07-09T03:18:28.078Z,15
2018-07-09T03:19:18.560Z,14.9
2018-07-09T03:20:08.499Z,15
2018-07-09T03:20:58.560Z,15
2018-07-09T03:21:48.604Z,15
2018-07-09T03:22:38.665Z,15
2018-07-09T03:23:28.749Z,15
2018-07-09T03:24:18.553Z,15
2018-07-09T03:25:08.865Z,15.1
2018-07-09T03:25:58.926Z,15.1
2018-07-09T03:26:48.167Z,15.1
2018-07-09T03:27:39.075Z,15.1
2018-07-09T03:28:28.816Z,15.1
2018-07-09T03:29:18.938Z,15.1
2018-07-09T03:30:09.266Z,15.1
2018-07-09T03:30:59.374Z,15.1
2018-07-09T03:31:49.119Z,15.1
2018-07-09T03:32:39.247Z,15.1
2018-07-09T03:33:29.224Z,15.2
2018-07-09T03:34:19.572Z,15.2
2018-07-09T03:35:09.699Z,15.2
2018-07-09T03:35:59.706Z,15.2
2018-07-09T03:36:49.761Z,15.2
2018-07-09T03:37:39.827Z,15.2
2018-07-09T03:38:29.326Z,15.3
2018-07-09T03:39:19.668Z,15.3
2018-07-09T03:40:09.721Z,15.3
2018-07-09T03:41:00.182Z,15.3
2018-07-09T03:41:50.142Z,15.3
2018-07-09T03:42:39.939Z,15.3
2018-07-09T03:43:30.280Z,15.3
2018-07-09T03:44:20.058Z,15.3
2018-07-09T03:45:10.382Z,15.3
2018-07-09T03:46:00.251Z,15.4
2018-07-09T03:46:50.247Z,15.4
2018-07-09T03:47:40.312Z,15.4
2018-07-09T03:48:30.669Z,15.4
2018-07-09T03:49:20.711Z,15.4
2018-07-09T03:50:10.533Z,15.4
2018-07-09T03:51:00.571Z,15.4
2018-07-09T03:51:50.698Z,15.5
2018-07-09T03:52:40.985Z,15.5
2018-07-09T03:53:31.041Z,15.5
2018-07-09T03:54:20.526Z,15.5
2018-07-09T03:55:11.178Z,15.6
2018-07-09T03:56:00.410Z,15.6
2018-07-09T03:56:51.312Z,15.6
2018-07-09T03:57:41.090Z,15.6
2018-07-09T03:58:31.417Z,15.6
2018-07-09T03:59:21.215Z,15.6
2018-07-09T04:00:11.574Z,15.6
2018-07-09T04:01:01.643Z,15.6
2018-07-09T04:01:51.684Z,15.7
2018-07-09T04:02:41.760Z,15.7
2018-07-09T04:03:31.850Z,15.8
2018-07-09T04:04:21.870Z,15.8
2018-07-09T04:05:11.685Z,15.8
2018-07-09T04:06:02.013Z,15.8
2018-07-09T04:06:51.792Z,15.8
2018-07-09T04:07:42.127Z,15.9
2018-07-09T04:08:31.914Z,15.9
2018-07-09T04:09:22.304Z,15.9
2018-07-09T04:10:12.361Z,15.9
2018-07-09T04:11:02.414Z,15.9
2018-07-09T04:11:52.473Z,16
2018-07-09T04:12:42.241Z,16.1
2018-07-09T04:13:32.569Z,16.1
2018-07-09T04:14:22.649Z,16.1
2018-07-09T04:15:12.448Z,16.1
2018-07-09T04:16:02.213Z,16.2
2018-07-09T04:16:52.919Z,16.2
2018-07-09T04:17:42.635Z,16.3
2018-07-09T04:18:32.410Z,16.3
2018-07-09T04:19:23.028Z,16.3
2018-07-09T04:20:13.118Z,16.4
2018-07-09T04:21:03.486Z,16.4
2018-07-09T04:21:53.276Z,16.4
2018-07-09T04:22:43.293Z,16.4
2018-07-09T04:23:33.074Z,16.5
2018-07-09T04:24:22.589Z,16.6
2018-07-09T04:25:13.189Z,16.6
2018-07-09T04:26:03.592Z,16.6
2018-07-09T04:26:53.340Z,16.7
2018-07-09T04:27:43.705Z,16.8
2018-07-09T04:28:33.167Z,16.8
2018-07-09T04:29:23.794Z,16.9
2018-07-09T04:30:13.848Z,16.9
2018-07-09T04:31:54.186Z,17.1
2018-07-09T04:32:43.776Z,17.1
2018-07-09T04:33:34.111Z,17.1
2018-07-09T04:34:23.916Z,17.2
2018-07-09T04:35:14.256Z,17.3
2018-07-09T04:36:04.334Z,17.4
2018-07-09T04:36:53.831Z,17.4
2018-07-09T04:37:44.623Z,17.5
2018-07-09T04:38:34.272Z,17.6
2018-07-09T04:39:24.564Z,17.7
2018-07-09T04:40:14.146Z,17.8
2018-07-09T04:41:04.156Z,17.8
2018-07-09T04:41:54.485Z,17.9
2018-07-09T04:42:44.894Z,17.9
2018-07-09T04:43:34.906Z,18.1
2018-07-09T04:44:24.997Z,18.1
2018-07-09T04:45:15.044Z,18.2
2018-07-09T04:46:05.132Z,18.3
2018-07-09T04:46:55.179Z,18.4
2018-07-09T04:47:44.941Z,18.4
2018-07-09T04:48:34.738Z,18.5
2018-07-09T04:49:25.359Z,18.6
2018-07-09T04:51:05.496Z,18.8
2018-07-09T04:51:55.531Z,18.9
2018-07-09T04:52:45.111Z,19
2018-07-09T04:53:35.130Z,19.1
2018-07-09T04:54:25.790Z,19.3
2018-07-09T04:55:15.821Z,19.4
2018-07-09T04:56:05.323Z,19.5
2018-07-09T04:56:55.929Z,19.7
2018-07-09T04:57:45.995Z,19.8
2018-07-09T04:58:36.039Z,19.9
2018-07-09T04:59:26.127Z,20.1
2018-07-09T05:00:16.172Z,20.3
2018-07-09T05:01:05.981Z,20.4
2018-07-09T05:01:56.352Z,20.6
2018-07-09T05:02:46.114Z,20.7
2018-07-09T05:03:36.170Z,20.9
2018-07-09T05:05:16.584Z,21.3
2018-07-09T05:06:06.633Z,21.4
2018-07-09T05:06:56.712Z,21.7
2018-07-09T05:07:46.495Z,21.9
2018-07-09T05:08:36.556Z,22.1
2018-07-09T05:09:26.916Z,22.3
2018-07-09T05:10:16.693Z,22.5
2018-07-09T05:11:06.740Z,22.8
2018-07-09T05:11:57.113Z,22.9
2018-07-09T05:12:47.170Z,23.1
2018-07-09T05:13:36.942Z,23.2
2018-07-09T05:14:26.460Z,23.4
2018-07-09T05:15:17.072Z,23.6
2018-07-09T05:16:06.858Z,23.7
2018-07-09T05:16:56.979Z,23.8
2018-07-09T05:17:47.603Z,23.9
2018-07-09T05:18:36.849Z,23.9
2018-07-09T05:19:27.099Z,24.1
2018-07-09T05:20:17.736Z,24.1
2018-07-09T05:21:07.536Z,24.3
2018-07-09T05:21:57.567Z,24.3
2018-07-09T05:22:47.927Z,24.4
2018-07-09T05:23:37.701Z,24.4
2018-07-09T05:24:28.053Z,24.5
2018-07-09T05:25:17.862Z,24.6
2018-07-09T05:26:08.167Z,24.7
2018-07-09T05:26:58.230Z,24.8
2018-07-09T05:27:48.316Z,24.8
2018-07-09T05:28:38.406Z,24.8
2018-07-09T05:29:28.158Z,24.8
2018-07-09T05:30:18.211Z,24.9
2018-07-09T05:31:08.295Z,24.9
2018-07-09T05:31:58.641Z,25.1
2018-07-09T05:32:48.715Z,25.2
2018-07-09T05:33:38.761Z,25.3
2018-07-09T05:34:28.277Z,25.5
2018-07-09T05:35:18.350Z,25.8
2018-07-09T05:36:08.681Z,26.1
2018-07-09T05:36:59.047Z,26.6
2018-07-09T05:37:48.526Z,27.1
2018-07-09T05:38:38.667Z,27.7
2018-07-09T05:39:28.928Z,28.3
2018-07-09T05:40:19.297Z,28.8
2018-07-09T05:41:08.849Z,29.2
2018-07-09T05:41:59.434Z,29.6
2018-07-09T05:42:49.194Z,29.8
2018-07-09T05:43:39.259Z,29.9
2018-07-09T05:44:29.060Z,30.1
2018-07-09T05:45:19.379Z,30.1
2018-07-09T05:46:09.527Z,30.1
2018-07-09T05:47:00.235Z,30.1
2018-07-09T05:47:49.576Z,30.1
2018-07-09T05:48:39.668Z,30
2018-07-09T05:49:30.007Z,30
2018-07-09T05:50:19.773Z,29.9
2018-07-09T05:51:09.851Z,29.9
2018-07-09T05:52:00.162Z,29.8
2018-07-09T05:52:49.688Z,29.6
2018-07-09T05:53:40.021Z,29.6
2018-07-09T05:54:30.369Z,29.5
2018-07-09T05:55:20.425Z,29.5
2018-07-09T05:56:10.502Z,29.4
2018-07-09T05:57:00.266Z,29.6
2018-07-09T05:57:50.626Z,29.6
2018-07-09T05:58:40.701Z,29.7
2018-07-09T05:59:30.496Z,29.8
2018-07-09T06:00:20.539Z,29.9
2018-07-09T06:01:10.593Z,30.1
2018-07-09T06:02:00.380Z,30.3
2018-07-09T06:02:51.000Z,30.6
2018-07-09T06:03:41.063Z,30.9
2018-07-09T06:04:30.582Z,31.2
2018-07-09T06:05:21.227Z,31.5
2018-07-09T06:06:10.995Z,31.8
2018-07-09T06:07:00.761Z,32
2018-07-09T06:07:51.381Z,32.3
2018-07-09T06:08:40.898Z,32.5
2018-07-09T06:09:31.243Z,32.7
2018-07-09T06:10:21.599Z,33
2018-07-09T06:11:11.627Z,33.4
2018-07-09T06:12:01.716Z,33.8
2018-07-09T06:12:51.780Z,34.1
2018-07-09T06:13:42.017Z,34.3
2018-07-09T06:14:31.889Z,34.6
2018-07-09T06:15:21.687Z,34.9
2018-07-09T06:16:12.024Z,35.2
2018-07-09T06:17:02.139Z,35.5
2018-07-09T06:17:52.153Z,35.8
2018-07-09T06:18:41.952Z,36
2018-07-09T06:19:32.587Z,36.2
2018-07-09T06:20:22.073Z,36.4
2018-07-09T06:21:12.394Z,36.7
2018-07-09T06:22:02.202Z,37
2018-07-09T06:22:51.996Z,37.4
2018-07-09T06:23:42.634Z,37.8
2018-07-09T06:24:32.399Z,38.1
2018-07-09T06:25:22.343Z,38.4
2018-07-09T06:26:12.847Z,38.9
2018-07-09T06:27:02.920Z,39.3
2018-07-09T06:27:52.905Z,39.7
2018-07-09T06:28:42.973Z,40.3
2018-07-09T06:29:32.778Z,40.7
2018-07-09T06:30:23.166Z,41.1
2018-07-09T06:31:13.188Z,41.5
2018-07-09T06:32:03.246Z,41.8
2018-07-09T06:32:53.025Z,41.9
2018-07-09T06:33:43.139Z,42.1
2018-07-09T06:34:33.270Z,42.2
2018-07-09T06:35:23.506Z,42.3
2018-07-09T06:36:13.334Z,42.3
2018-07-09T06:37:03.075Z,42.4
2018-07-09T06:37:53.693Z,42.5
2018-07-09T06:38:43.502Z,42.6
2018-07-09T06:39:33.546Z,42.8
2018-07-09T06:40:23.909Z,42.8
2018-07-09T06:41:13.990Z,42.8
2018-07-09T06:42:03.795Z,42.7
2018-07-09T06:42:53.833Z,42.7
2018-07-09T06:43:44.245Z,42.7
2018-07-09T06:44:33.988Z,42.7
2018-07-09T06:45:24.284Z,42.6
2018-07-09T06:46:14.114Z,42.6
2018-07-09T06:47:04.142Z,42.6
2018-07-09T06:47:54.191Z,42.6
2018-07-09T06:48:44.039Z,42.6
2018-07-09T06:49:34.141Z,42.7
2018-07-09T06:50:24.392Z,42.9
2018-07-09T06:51:14.741Z,43.1
2018-07-09T06:52:04.806Z,43.3
2018-07-09T06:52:54.566Z,43.6
2018-07-09T06:53:45.009Z,43.9
2018-07-09T06:54:34.984Z,44.3
2018-07-09T06:55:25.042Z,44.6
2018-07-09T06:56:15.104Z,45.1
2018-07-09T06:57:04.980Z,45.6
2018-07-09T06:57:55.255Z,46.1
2018-07-09T06:58:45.327Z,46.9
2018-07-09T06:59:35.374Z,48.1
2018-07-09T07:00:25.427Z,49.4
2018-07-09T07:01:14.917Z,50.9
2018-07-09T07:02:05.569Z,52.1
2018-07-09T07:02:55.610Z,53.3
2018-07-09T07:03:45.720Z,54.3
2018-07-09T07:04:35.209Z,55.3
2018-07-09T07:05:25.836Z,56.2
2018-07-09T07:06:15.610Z,56.9
2018-07-09T07:07:05.664Z,57.6
2018-07-09T07:07:55.191Z,58.3
2018-07-09T07:08:46.574Z,59.1
2018-07-09T07:09:35.852Z,59.8
2018-07-09T07:10:26.124Z,60.6
2018-07-09T07:11:15.976Z,61.6
2018-07-09T07:12:06.324Z,62.8
2018-07-09T07:12:56.413Z,64.2
2018-07-09T07:13:46.522Z,65.6
2018-07-09T07:14:36.559Z,67
2018-07-09T07:15:26.361Z,68.3
2018-07-09T07:16:16.673Z,69.4
2018-07-09T07:17:06.768Z,70.4
2018-07-09T07:17:56.798Z,72.8
2018-07-09T07:18:46.594Z,73.8
2018-07-09T07:19:36.926Z,70.1
2018-07-09T07:20:27.113Z,62.8
2018-07-09T07:21:17.056Z,53.3
2018-07-09T07:22:06.825Z,48.6
2018-07-09T07:22:57.179Z,46.3
2018-07-09T07:23:47.361Z,45.1
2018-07-09T07:24:37.028Z,44.4
2018-07-09T07:25:27.381Z,44.2
2018-07-09T07:26:17.442Z,44.3
2018-07-09T07:27:07.526Z,44.6
2018-07-09T07:27:57.570Z,45.1
2018-07-09T07:28:47.643Z,45.9
2018-07-09T07:29:37.697Z,47.1
2018-07-09T07:30:27.475Z,48.3
2018-07-09T07:31:17.568Z,49.6
2018-07-09T07:32:07.912Z,50.5
2018-07-09T07:32:57.127Z,51
2018-07-09T07:33:48.030Z,51.3
2018-07-09T07:34:37.944Z,51.3
2018-07-09T07:35:27.890Z,51.2
2018-07-09T07:36:18.255Z,51.1
2018-07-09T07:37:07.993Z,50.8
2018-07-09T07:37:58.344Z,50.6
2018-07-09T07:38:48.407Z,50.4
2018-07-09T07:39:37.917Z,50.1
2018-07-09T07:40:28.525Z,49.9
2018-07-09T07:41:18.608Z,49.8
2018-07-09T07:42:08.650Z,49.6
2018-07-09T07:42:58.465Z,49.3
2018-07-09T07:43:48.811Z,49.1
2018-07-09T07:44:38.585Z,49
2018-07-09T07:45:28.639Z,49
2018-07-09T07:46:19.004Z,49
2018-07-09T07:47:09.043Z,49.2
2018-07-09T07:47:59.140Z,49.4
2018-07-09T07:48:49.250Z,49.6
2018-07-09T07:49:38.717Z,49.9
2018-07-09T07:50:29.881Z,50.4
2018-07-09T07:51:19.129Z,51.1
2018-07-09T07:52:09.451Z,51.9
2018-07-09T07:52:59.552Z,52.9
2018-07-09T07:53:49.596Z,53.9
2018-07-09T07:54:39.375Z,55.4
2018-07-09T07:55:29.431Z,57.1
2018-07-09T07:56:19.553Z,58.9
2018-07-09T07:57:09.866Z,60.9
2018-07-09T07:57:59.933Z,62.9
2018-07-09T07:58:50.003Z,64.9
2018-07-09T07:59:40.071Z,66.6
2018-07-09T08:00:29.836Z,68.1
2018-07-09T08:01:20.182Z,69.1
2018-07-09T08:02:09.977Z,69.8
2018-07-09T08:03:00.439Z,70.9
2018-07-09T08:03:50.080Z,70.2
2018-07-09T08:04:39.668Z,65.8
2018-07-09T08:05:30.234Z,60.1
2018-07-09T08:06:20.529Z,54.8
2018-07-09T08:07:10.063Z,52.3
2018-07-09T08:08:00.111Z,50.9
2018-07-09T08:08:50.732Z,50.1
2018-07-09T08:09:41.125Z,49.6
2018-07-09T08:10:30.881Z,49.1
2018-07-09T08:11:20.922Z,48.7
2018-07-09T08:13:31.304Z,48.1
2018-07-09T08:13:53.404Z,48.1
2018-07-09T08:14:43.575Z,48.2
2018-07-09T08:15:33.804Z,48.4
2018-07-09T08:16:23.549Z,48.6
2018-07-09T08:17:13.693Z,48.8
2018-07-09T08:18:03.683Z,48.9
2018-07-09T08:18:53.736Z,49.1
2018-07-09T08:19:43.801Z,49.3
2018-07-09T08:20:33.582Z,49.7
2018-07-09T08:21:23.958Z,50.7
2018-07-09T08:22:13.719Z,52
2018-07-09T08:23:04.083Z,53.7
2018-07-09T08:23:53.883Z,55.6
2018-07-09T08:24:44.527Z,56.9
2018-07-09T08:26:24.372Z,58.3
2018-07-09T08:28:04.494Z,59.1
2018-07-09T08:28:54.076Z,60.3
2018-07-09T08:29:44.056Z,61.6
2018-07-09T08:30:34.678Z,62.5
2018-07-09T08:31:25.542Z,63.1
2018-07-09T08:32:14.801Z,64.1
2018-07-09T08:33:04.922Z,66.6
2018-07-09T08:33:54.927Z,67.1
2018-07-09T08:34:44.446Z,67.9
2018-07-09T08:35:34.790Z,69.1
2018-07-09T08:36:24.564Z,71.6
2018-07-09T08:37:14.616Z,69.5
2018-07-09T08:38:05.440Z,65.8
2018-07-09T08:38:55.332Z,61
2018-07-09T08:39:44.836Z,56.9
2018-07-09T08:40:35.153Z,55
2018-07-09T08:41:24.688Z,54.3
2018-07-09T08:42:15.300Z,54.2
2018-07-09T08:43:05.344Z,54.7
2018-07-09T08:43:55.406Z,55.4
2018-07-09T08:44:45.744Z,56.4
2018-07-09T08:45:35.565Z,57.6
2018-07-09T08:46:25.888Z,58.7
2018-07-09T08:47:15.960Z,59.3
2018-07-09T08:48:05.501Z,59.7
2018-07-09T08:48:56.067Z,59.9
2018-07-09T08:49:46.157Z,60
2018-07-09T08:50:35.648Z,60.1
2018-07-09T08:51:26.286Z,60.2
2018-07-09T08:52:16.082Z,60.4
2018-07-09T08:53:06.434Z,60.4
2018-07-09T08:53:56.492Z,60.3
2018-07-09T08:54:46.563Z,60.3
2018-07-09T08:55:36.594Z,60.1
2018-07-09T08:56:26.392Z,60.1
2018-07-09T08:57:16.183Z,59.9
2018-07-09T08:58:06.857Z,59.6
2018-07-09T08:58:56.330Z,59.4
2018-07-09T08:59:46.938Z,59.2
2018-07-09T09:00:37.014Z,59
2018-07-09T09:01:26.773Z,58.9
2018-07-09T09:02:16.851Z,58.9
2018-07-09T09:03:07.196Z,59.2
2018-07-09T09:03:56.704Z,59.8
2018-07-09T09:04:47.062Z,60.8
2018-07-09T09:05:36.550Z,62.5
2018-07-09T09:06:27.511Z,64.8
2018-07-09T09:07:17.527Z,67.1
2018-07-09T09:08:07.343Z,69.1
2018-07-09T09:08:57.692Z,71.8
2018-07-09T09:09:47.272Z,74.6
2018-07-09T09:10:37.495Z,72.5
2018-07-09T09:11:26.729Z,69.1
2018-07-09T09:12:17.935Z,63.6
2018-07-09T09:13:07.711Z,58.1
2018-07-09T09:13:58.078Z,55.7
2018-07-09T09:14:47.574Z,55.6
2018-07-09T09:15:37.908Z,56.6
2018-07-09T09:16:27.835Z,57.6
2018-07-09T09:17:18.026Z,58.4
2018-07-09T09:18:08.411Z,59.4
2018-07-09T09:18:58.458Z,61.3
2018-07-09T09:19:48.533Z,63
2018-07-09T09:20:38.606Z,64.8
2018-07-09T09:21:28.651Z,66.3
2018-07-09T09:22:18.754Z,68.4
2018-07-09T09:23:08.814Z,71.5
2018-07-09T09:23:58.853Z,71.2
2018-07-09T09:24:48.917Z,70.1
2018-07-09T09:25:39.450Z,67.7
2018-07-09T09:26:28.772Z,63.4
2018-07-09T09:27:19.115Z,59.2
2018-07-09T09:28:09.204Z,57.8
2018-07-09T09:28:59.267Z,59.3
2018-07-09T09:29:49.011Z,61.7
2018-07-09T09:30:39.118Z,63.8
2018-07-09T09:31:29.675Z,64.3
2018-07-09T09:32:19.511Z,62.6
2018-07-09T09:33:09.586Z,60.3
2018-07-09T09:33:59.621Z,58.1
2018-07-09T09:34:49.401Z,56.7
2018-07-09T09:35:39.471Z,55.9
2018-07-09T09:36:29.556Z,55.8
2018-07-09T09:37:19.702Z,55.6
2018-07-09T09:38:09.964Z,55.8
2018-07-09T09:39:00.046Z,55.9
2018-07-09T09:39:49.806Z,56.2
2018-07-09T09:40:39.862Z,56.6
2018-07-09T09:41:29.958Z,56.9
2018-07-09T09:42:20.295Z,57.8
2018-07-09T09:43:10.803Z,58.9
2018-07-09T09:44:00.363Z,60.1
2018-07-09T09:44:50.439Z,60.9
2018-07-09T09:45:39.956Z,61.4
2018-07-09T09:46:30.293Z,61.8
2018-07-09T09:47:20.637Z,62.9
2018-07-09T09:48:10.698Z,64.8
2018-07-09T09:49:00.755Z,67
2018-07-09T09:49:50.845Z,70.8
2018-07-09T09:50:40.614Z,74.9
2018-07-09T09:51:30.694Z,74.1
2018-07-09T09:52:21.024Z,71.8
2018-07-09T09:53:11.085Z,66.9
2018-07-09T09:54:01.197Z,62.2
2018-07-09T09:54:50.924Z,58.9
2018-07-09T09:56:31.363Z,59.8
2018-07-09T09:57:21.404Z,60.6
2018-07-09T09:58:11.483Z,60.8
2018-07-09T09:59:01.271Z,60.5
2018-07-09T09:59:51.366Z,60.3
2018-07-09T10:00:42.432Z,60.3
2018-07-09T10:01:31.522Z,61
2018-07-09T10:02:21.863Z,61.5
2018-07-09T10:03:11.337Z,61.1
2018-07-09T10:04:01.704Z,59.9
2018-07-09T10:04:51.827Z,59.3
2018-07-09T10:05:42.085Z,58.7
2018-07-09T10:06:32.300Z,58.4
2018-07-09T10:07:21.922Z,58.3
2018-07-09T10:08:12.267Z,57.9
2018-07-09T10:09:02.354Z,57.4
2018-07-09T10:09:52.431Z,56.9
2018-07-09T10:10:42.462Z,56.3
2018-07-09T10:11:32.526Z,56
2018-07-09T10:12:22.581Z,56
2018-07-09T10:13:12.649Z,56.8
2018-07-09T10:14:02.746Z,58.4
2018-07-09T10:14:52.793Z,59.9
2018-07-09T10:15:42.896Z,61.1
2018-07-09T10:16:32.903Z,61.9
2018-07-09T10:17:22.983Z,62.7
2018-07-09T10:18:13.057Z,65.3
2018-07-09T10:19:03.105Z,66.6
2018-07-09T10:19:52.905Z,64.4
2018-07-09T10:20:43.237Z,61.8
2018-07-09T10:21:33.342Z,59.8
2018-07-09T10:22:23.398Z,58.3
2018-07-09T10:23:15.007Z,56.5
2018-07-09T10:24:03.279Z,55.4
2018-07-09T10:24:53.569Z,55.5
2018-07-09T10:25:43.653Z,56.4
2018-07-09T10:26:33.704Z,57.3
2018-07-09T10:27:22.931Z,58.8
2018-07-09T10:28:13.844Z,60.8
2018-07-09T10:29:03.370Z,62.7
2018-07-09T10:29:53.684Z,64.9
2018-07-09T10:30:44.045Z,68.6
2018-07-09T10:31:34.113Z,68.4
2018-07-09T10:32:23.896Z,66.9
2018-07-09T10:33:14.228Z,64.1
2018-07-09T10:34:04.027Z,60.2
2018-07-09T10:34:54.100Z,57.3
2018-07-09T10:35:44.438Z,56.1
2018-07-09T10:36:34.515Z,56
2018-07-09T10:37:23.991Z,56.3
2018-07-09T10:38:14.624Z,56.9
2018-07-09T10:39:04.117Z,57.6
2018-07-09T10:39:54.577Z,58.9
2018-07-09T10:40:44.558Z,59.9
2018-07-09T10:41:34.940Z,60.3
2018-07-09T10:42:24.985Z,60.3
2018-07-09T10:43:14.440Z,60.3
2018-07-09T10:44:05.096Z,60.2
2018-07-09T10:44:54.865Z,60.1
2018-07-09T10:45:44.917Z,60.2
2018-07-09T10:46:34.730Z,60.8
2018-07-09T10:47:25.040Z,62.4
2018-07-09T10:48:15.401Z,64.7
2018-07-09T10:49:05.458Z,67
2018-07-09T10:49:55.006Z,70.6
2018-07-09T10:50:45.610Z,70.9
2018-07-09T10:51:35.680Z,68.1
2018-07-09T10:52:25.459Z,64.4
2018-07-09T10:53:15.521Z,60.7
2018-07-09T10:54:05.870Z,58.6
2018-07-09T10:54:55.941Z,59.4
2018-07-09T10:55:45.994Z,62.2
2018-07-09T10:56:36.061Z,64.9
2018-07-09T10:57:26.206Z,66.4
2018-07-09T10:58:15.891Z,65.5
2018-07-09T10:59:06.286Z,62.9
2018-07-09T10:59:56.285Z,60.2
2018-07-09T11:00:46.716Z,58.4
2018-07-09T11:01:36.451Z,57.8
2018-07-09T11:02:26.237Z,58.4
2018-07-09T11:03:16.581Z,59.3
2018-07-09T11:04:06.381Z,60.3
2018-07-09T11:04:56.718Z,60.9
2018-07-09T11:05:46.775Z,60.9
2018-07-09T11:06:36.832Z,60.1
2018-07-09T11:07:26.612Z,59.2
2018-07-09T11:08:17.001Z,58.9
2018-07-09T11:09:07.058Z,59.4
2018-07-09T11:09:57.133Z,59.8
2018-07-09T11:10:47.196Z,59.4
2018-07-09T11:11:37.241Z,58.8
2018-07-09T11:12:27.313Z,58.1
2018-07-09T11:13:16.804Z,57.3
2018-07-09T11:14:07.212Z,57.1